Time,TemperatureF,DewpointF,PressureIn,WindDirection,WindDirectionDegrees,WindSpeedMPH,WindSpeedGustMPH,Humidity,HourlyPrecipIn,Conditions,Clouds,dailyrainin,SolarRadiationWatts/m^2,SoftwareType,DateUTC
2013-09-20 00:13:00,56.2,52.0,29.81,SW,216,0.0,4.0,84,0.00,,,0.00,0,weatherlink.com 1.10,2013-09-20 07:13:00,
2013-09-20 00:28:00,56.1,51.0,29.82,WSW,247,1.0,4.0,84,0.00,,,0.00,0,weatherlink.com 1.10,2013-09-20 07:28:00,
2013-09-20 00:43:00,56.0,52.0,29.82,SW,226,0.0,4.0,85,0.00,,,0.00,0,weatherlink.com 1.10,2013-09-20 07:43:00,
2013-09-20 00:58:00,55.9,52.0,29.82,WSW,250,0.0,5.0,85,0.00,,,0.00,0,weatherlink.com 1.10,2013-09-20 07:58:00,
2013-09-20 01:13:00,55.7,51.0,29.82,WSW,250,0.0,0.0,85,0.00,,,0.00,0,weatherlink.com 1.10,2013-09-20 08:13:00,
2013-09-20 01:28:00,55.5,51.0,29.82,WSW,250,0.0,0.0,85,0.00,,,0.00,0,weatherlink.com 1.10,2013-09-20 08:28:00,
2013-09-20 01:44:00,55.3,51.0,29.82,WSW,250,0.0,0.0,85,0.00,,,0.00,0,weatherlink.com 1.10,2013-09-20 08:44:00,
2013-09-20 01:59:00,55.2,51.0,29.82,WSW,250,0.0,0.0,86,0.00,,,0.00,0,weatherlink.com 1.10,2013-09-20 08:59:00,
2013-09-20 02:14:00,55.1,51.0,29.82,WSW,250,0.0,1.0,86,0.00,,,0.00,0,weatherlink.com 1.10,2013-09-20 09:14:00,
2013-09-20 02:29:00,54.9,51.0,29.82,South,187,3.0,3.0,86,0.00,,,0.00,0,weatherlink.com 1.10,2013-09-20 09:29:00,
2013-09-20 02:44:00,54.9,51.0,29.81,SSW,211,3.0,7.0,86,0.00,,,0.00,0,weatherlink.com 1.10,2013-09-20 09:44:00,
2013-09-20 02:59:00,55.1,51.0,29.81,NNW,347,1.0,5.0,85,0.00,,,0.00,0,weatherlink.com 1.10,2013-09-20 09:59:00,
2013-09-20 03:14:00,55.2,51.0,29.81,SW,223,1.0,9.0,86,0.00,,,0.00,0,weatherlink.com 1.10,2013-09-20 10:14:00,
2013-09-20 03:29:00,54.9,51.0,29.81,WSW,244,0.0,12.0,87,0.00,,,0.00,0,weatherlink.com 1.10,2013-09-20 10:29:00,
2013-09-20 03:44:00,54.8,51.0,29.81,SSW,195,1.0,1.0,88,0.00,,,0.00,0,weatherlink.com 1.10,2013-09-20 10:44:00,
2013-09-20 03:59:00,55.1,52.0,29.81,SW,222,8.0,9.0,89,0.00,,,0.00,0,weatherlink.com 1.10,2013-09-20 10:59:00,
2013-09-20 04:14:00,55.5,53.0,29.81,SW,232,3.0,7.0,90,0.00,,,0.00,0,weatherlink.com 1.10,2013-09-20 11:14:00,
2013-09-20 04:29:00,55.6,53.0,29.81,NNE,16,3.0,6.0,90,0.00,,,0.00,0,weatherlink.com 1.10,2013-09-20 11:29:00,
2013-09-20 04:44:00,55.7,53.0,29.81,WSW,243,5.0,8.0,91,0.00,,,0.00,0,weatherlink.com 1.10,2013-09-20 11:44:00,
2013-09-20 04:59:00,56.0,54.0,29.81,SW,227,4.0,6.0,91,0.00,,,0.00,0,weatherlink.com 1.10,2013-09-20 11:59:00,
2013-09-20 05:14:00,56.2,54.0,29.81,NW,313,1.0,9.0,91,0.00,,,0.00,0,weatherlink.com 1.10,2013-09-20 12:14:00,
2013-09-20 05:29:00,56.6,54.0,29.81,SW,233,1.0,11.0,92,0.00,,,0.00,0,weatherlink.com 1.10,2013-09-20 12:29:00,
2013-09-20 05:44:00,56.9,55.0,29.81,WNW,300,1.0,5.0,92,0.00,,,0.00,0,weatherlink.com 1.10,2013-09-20 12:44:00,
2013-09-20 05:59:00,57.1,55.0,29.81,NW,305,2.0,6.0,92,0.00,,,0.00,0,weatherlink.com 1.10,2013-09-20 12:59:00,
2013-09-20 06:14:00,57.1,55.0,29.81,West,273,1.0,3.0,92,0.00,,,0.00,0,weatherlink.com 1.10,2013-09-20 13:14:00,
2013-09-20 06:29:00,57.3,55.0,29.82,SW,235,0.0,4.0,92,0.00,,,0.00,0,weatherlink.com 1.10,2013-09-20 13:29:00,
2013-09-20 06:44:00,57.3,55.0,29.82,SSW,203,3.0,9.0,92,0.00,,,0.00,0,weatherlink.com 1.10,2013-09-20 13:44:00,
2013-09-20 06:59:00,57.4,55.0,29.83,South,184,0.0,3.0,92,0.00,,,0.00,0,weatherlink.com 1.10,2013-09-20 13:59:00,
2013-09-20 07:14:00,57.5,55.0,29.83,South,182,0.0,5.0,92,0.00,,,0.00,7,weatherlink.com 1.10,2013-09-20 14:14:00,
2013-09-20 07:29:00,57.5,55.0,29.84,SSW,200,1.0,7.0,92,0.00,,,0.00,12,weatherlink.com 1.10,2013-09-20 14:29:00,
2013-09-20 07:44:00,57.7,56.0,29.84,SSW,198,1.0,8.0,93,0.00,,,0.00,26,weatherlink.com 1.10,2013-09-20 14:44:00,
2013-09-20 07:59:00,57.6,56.0,29.84,SW,218,2.0,9.0,93,0.00,,,0.00,86,weatherlink.com 1.10,2013-09-20 14:59:00,
2013-09-20 08:14:00,58.0,56.0,29.85,South,184,2.0,7.0,93,0.00,,,0.00,72,weatherlink.com 1.10,2013-09-20 15:14:00,
2013-09-20 08:29:00,58.4,56.0,29.85,South,187,4.0,9.0,93,0.00,,,0.00,81,weatherlink.com 1.10,2013-09-20 15:29:00,
2013-09-20 08:44:00,58.5,56.0,29.85,SW,236,9.0,10.0,92,0.00,,,0.00,90,weatherlink.com 1.10,2013-09-20 15:44:00,
2013-09-20 08:59:00,58.5,56.0,29.86,West,262,4.0,9.0,92,0.00,,,0.00,135,weatherlink.com 1.10,2013-09-20 15:59:00,
2013-09-20 09:14:00,58.2,56.0,29.86,SSW,202,8.0,12.0,92,0.00,,,0.00,185,weatherlink.com 1.10,2013-09-20 16:14:00,
2013-09-20 09:29:00,58.6,56.0,29.87,SSW,192,8.0,8.0,92,0.00,,,0.00,209,weatherlink.com 1.10,2013-09-20 16:29:00,
2013-09-20 09:44:00,59.2,57.0,29.88,SSW,212,3.0,10.0,91,0.00,,,0.00,262,weatherlink.com 1.10,2013-09-20 16:44:00,
2013-09-20 10:00:00,59.7,57.0,29.89,WSW,238,6.0,8.0,91,0.00,,,0.00,353,weatherlink.com 1.10,2013-09-20 17:00:00,
2013-09-20 10:15:00,60.6,58.0,29.89,SSW,211,3.0,9.0,90,0.00,,,0.00,341,weatherlink.com 1.10,2013-09-20 17:15:00,
2013-09-20 10:30:00,62.2,59.0,29.89,SW,214,3.0,13.0,88,0.00,,,0.00,687,weatherlink.com 1.10,2013-09-20 17:30:00,
2013-09-20 10:45:00,64.6,60.0,29.89,WSW,251,2.0,9.0,85,0.00,,,0.00,701,weatherlink.com 1.10,2013-09-20 17:45:00,
2013-09-20 11:00:00,66.5,60.0,29.89,SW,235,2.0,7.0,79,0.00,,,0.00,513,weatherlink.com 1.10,2013-09-20 18:00:00,
2013-09-20 11:15:00,65.7,59.0,29.89,SW,215,5.0,10.0,79,0.00,,,0.00,404,weatherlink.com 1.10,2013-09-20 18:15:00,
2013-09-20 11:30:00,65.2,60.0,29.89,SSW,200,1.0,6.0,82,0.00,,,0.00,274,weatherlink.com 1.10,2013-09-20 18:30:00,
2013-09-20 11:45:00,65.1,60.0,29.89,SSW,204,0.0,8.0,82,0.00,,,0.00,352,weatherlink.com 1.10,2013-09-20 18:45:00,
2013-09-20 12:00:00,65.2,60.0,29.89,WSW,237,1.0,9.0,82,0.00,,,0.00,279,weatherlink.com 1.10,2013-09-20 19:00:00,
2013-09-20 12:15:00,65.0,60.0,29.89,SW,221,5.0,9.0,84,0.00,,,0.00,554,weatherlink.com 1.10,2013-09-20 19:15:00,
2013-09-20 12:30:00,66.8,61.0,29.89,SSW,200,1.0,7.0,82,0.00,,,0.00,835,weatherlink.com 1.10,2013-09-20 19:30:00,
2013-09-20 12:45:00,68.5,61.0,29.89,SW,223,6.0,8.0,78,0.00,,,0.00,548,weatherlink.com 1.10,2013-09-20 19:45:00,
2013-09-20 13:00:00,67.9,61.0,29.89,WSW,239,3.0,9.0,78,0.00,,,0.00,323,weatherlink.com 1.10,2013-09-20 20:00:00,
2013-09-20 13:15:00,67.9,61.0,29.89,SW,216,4.0,8.0,78,0.00,,,0.00,318,weatherlink.com 1.10,2013-09-20 20:15:00,
2013-09-20 13:30:00,68.5,61.0,29.88,SSW,203,2.0,7.0,78,0.00,,,0.00,383,weatherlink.com 1.10,2013-09-20 20:30:00,
2013-09-20 13:45:00,69.4,62.0,29.88,SW,231,5.0,10.0,76,0.00,,,0.00,492,weatherlink.com 1.10,2013-09-20 20:45:00,
2013-09-20 14:00:00,69.4,62.0,29.88,SSE,161,3.0,8.0,76,0.00,,,0.00,415,weatherlink.com 1.10,2013-09-20 21:00:00,
2013-09-20 14:15:00,70.4,62.0,29.88,SW,218,4.0,9.0,74,0.00,,,0.00,503,weatherlink.com 1.10,2013-09-20 21:15:00,
2013-09-20 14:30:00,69.8,62.0,29.88,SW,220,3.0,12.0,75,0.00,,,0.00,443,weatherlink.com 1.10,2013-09-20 21:30:00,
2013-09-20 14:45:00,70.3,62.0,29.88,WSW,256,5.0,11.0,74,0.00,,,0.00,705,weatherlink.com 1.10,2013-09-20 21:45:00,
2013-09-20 15:00:00,69.9,61.0,29.88,South,190,6.0,12.0,74,0.00,,,0.00,338,weatherlink.com 1.10,2013-09-20 22:00:00,
2013-09-20 15:15:00,70.4,62.0,29.87,South,184,2.0,8.0,74,0.00,,,0.00,308,weatherlink.com 1.10,2013-09-20 22:15:00,
2013-09-20 15:30:00,70.7,62.0,29.87,SW,226,5.0,8.0,73,0.00,,,0.00,357,weatherlink.com 1.10,2013-09-20 22:30:00,
2013-09-20 15:45:00,70.8,62.0,29.86,SW,230,6.0,8.0,73,0.00,,,0.00,381,weatherlink.com 1.10,2013-09-20 22:45:00,
2013-09-20 16:00:00,71.0,61.0,29.86,SSW,210,9.0,11.0,71,0.00,,,0.00,334,weatherlink.com 1.10,2013-09-20 23:00:00,
2013-09-20 16:15:00,70.6,61.0,29.85,WSW,244,5.0,13.0,71,0.00,,,0.00,209,weatherlink.com 1.10,2013-09-20 23:15:00,
2013-09-20 16:30:00,70.4,61.0,29.86,WSW,252,4.0,10.0,71,0.00,,,0.00,243,weatherlink.com 1.10,2013-09-20 23:30:00,
2013-09-20 16:45:00,69.3,61.0,29.86,SW,230,3.0,12.0,75,0.00,,,0.00,144,weatherlink.com 1.10,2013-09-20 23:45:00,
2013-09-20 17:00:00,68.5,61.0,29.86,WSW,246,6.0,11.0,77,0.00,,,0.00,274,weatherlink.com 1.10,2013-09-21 00:00:00,
2013-09-20 17:15:00,68.0,61.0,29.86,SW,225,5.0,14.0,79,0.00,,,0.00,272,weatherlink.com 1.10,2013-09-21 00:15:00,
2013-09-20 17:30:00,67.9,61.0,29.86,SW,231,5.0,11.0,79,0.00,,,0.00,148,weatherlink.com 1.10,2013-09-21 00:30:00,
2013-09-20 17:45:00,68.0,61.0,29.86,SW,225,3.0,10.0,79,0.00,,,0.00,53,weatherlink.com 1.10,2013-09-21 00:45:00,
2013-09-20 18:00:00,67.5,61.0,29.86,SW,218,2.0,10.0,80,0.00,,,0.00,69,weatherlink.com 1.10,2013-09-21 01:00:00,
2013-09-20 18:15:00,66.9,61.0,29.85,SW,215,4.0,10.0,81,0.00,,,0.00,42,weatherlink.com 1.10,2013-09-21 01:15:00,
2013-09-20 18:30:00,66.5,61.0,29.85,SW,218,1.0,12.0,82,0.00,,,0.00,25,weatherlink.com 1.10,2013-09-21 01:30:00,
2013-09-20 18:45:00,66.4,61.0,29.86,SW,227,3.0,10.0,82,0.00,,,0.00,12,weatherlink.com 1.10,2013-09-21 01:45:00,
2013-09-20 19:00:00,66.0,61.0,29.86,WSW,237,5.0,12.0,83,0.00,,,0.00,5,weatherlink.com 1.10,2013-09-21 02:00:00,
2013-09-20 19:15:00,65.9,61.0,29.86,SW,227,2.0,9.0,83,0.00,,,0.00,0,weatherlink.com 1.10,2013-09-21 02:15:00,
2013-09-20 19:30:00,65.8,61.0,29.86,SSW,196,5.0,11.0,83,0.00,,,0.00,0,weatherlink.com 1.10,2013-09-21 02:30:00,
2013-09-20 19:45:00,65.6,60.0,29.86,SW,229,4.0,13.0,83,0.00,,,0.00,0,weatherlink.com 1.10,2013-09-21 02:45:00,
2013-09-20 20:00:00,65.5,60.0,29.86,SW,229,1.0,11.0,83,0.00,,,0.00,0,weatherlink.com 1.10,2013-09-21 03:00:00,
2013-09-20 20:15:00,65.6,60.0,29.87,SSW,203,6.0,9.0,83,0.00,,,0.00,0,weatherlink.com 1.10,2013-09-21 03:15:00,
2013-09-20 20:30:00,65.5,60.0,29.87,SW,222,3.0,9.0,83,0.00,,,0.00,0,weatherlink.com 1.10,2013-09-21 03:30:00,
2013-09-20 20:45:00,65.5,60.0,29.87,SW,233,4.0,8.0,82,0.00,,,0.00,0,weatherlink.com 1.10,2013-09-21 03:45:00,
2013-09-20 21:00:00,65.3,60.0,29.87,SW,227,2.0,7.0,83,0.00,,,0.00,0,weatherlink.com 1.10,2013-09-21 04:00:00,
2013-09-20 21:15:00,65.1,60.0,29.87,SW,234,6.0,8.0,83,0.00,,,0.00,0,weatherlink.com 1.10,2013-09-21 04:15:00,
2013-09-20 21:30:00,64.9,60.0,29.87,SW,227,4.0,10.0,83,0.00,,,0.00,0,weatherlink.com 1.10,2013-09-21 04:30:00,
2013-09-20 21:45:00,64.9,60.0,29.87,SSW,194,0.0,6.0,84,0.00,,,0.00,0,weatherlink.com 1.10,2013-09-21 04:45:00,
2013-09-20 22:00:00,65.1,60.0,29.87,SSW,204,0.0,4.0,84,0.00,,,0.00,0,weatherlink.com 1.10,2013-09-21 05:00:00,
2013-09-20 22:15:00,65.2,61.0,29.87,SSW,200,0.0,4.0,85,0.00,,,0.00,0,weatherlink.com 1.10,2013-09-21 05:15:00,
2013-09-20 22:30:00,65.3,61.0,29.87,WSW,240,0.0,5.0,85,0.00,,,0.00,0,weatherlink.com 1.10,2013-09-21 05:30:00,
2013-09-20 22:45:00,65.4,61.0,29.87,SSW,193,1.0,5.0,84,0.00,,,0.00,0,weatherlink.com 1.10,2013-09-21 05:45:00,
2013-09-20 23:00:00,65.5,61.0,29.86,SSE,160,4.0,6.0,84,0.00,,,0.00,0,weatherlink.com 1.10,2013-09-21 06:00:00,
2013-09-20 23:15:00,65.4,61.0,29.86,SW,215,3.0,7.0,84,0.00,,,0.00,0,weatherlink.com 1.10,2013-09-21 06:15:00,
2013-09-20 23:30:00,65.4,60.0,29.86,SSW,213,0.0,8.0,83,0.00,,,0.00,0,weatherlink.com 1.10,2013-09-21 06:30:00,
2013-09-20 23:45:00,65.4,60.0,29.86,SE,135,1.0,5.0,83,0.00,,,0.00,0,weatherlink.com 1.10,2013-09-21 06:45:00,